createdAt,value
2018-12-30T00:05:34.265Z,1.90
2018-12-30T00:07:40.255Z,2.80
2018-12-30T00:09:45.966Z,1.43
2018-12-30T00:12:10.930Z,2.70
2018-12-30T00:14:16.532Z,3.00
2018-12-30T00:16:22.666Z,2.10
2018-12-30T00:18:28.371Z,2.60
2018-12-30T00:20:33.945Z,1.17
2018-12-30T00:22:39.519Z,2.63
2018-12-30T00:24:46.286Z,1.00
2018-12-30T00:26:52.070Z,2.40
2018-12-30T00:29:01.032Z,2.67
2018-12-30T00:31:06.625Z,1.40
2018-12-30T00:33:13.220Z,2.93
2018-12-30T00:35:39.904Z,2.23
2018-12-30T00:37:45.710Z,2.00
2018-12-30T00:39:51.476Z,2.73
2018-12-30T00:42:20.366Z,1.63
2018-12-30T00:44:05.268Z,2.80
2018-12-30T00:46:10.917Z,2.10
2018-12-30T00:48:18.754Z,1.20
2018-12-30T00:50:25.001Z,2.60
2018-12-30T00:52:30.959Z,1.80
2018-12-30T00:54:37.322Z,2.33
2018-12-30T00:56:42.990Z,2.77
2018-12-30T00:59:01.722Z,1.77
2018-12-30T01:00:55.974Z,2.30
2018-12-30T01:03:01.998Z,1.60
2018-12-30T01:05:07.718Z,3.63
2018-12-30T01:07:32.436Z,2.37
2018-12-30T01:09:38.554Z,1.87
2018-12-30T01:14:15.461Z,2.73
2018-12-30T01:16:21.144Z,2.20
2018-12-30T01:18:26.839Z,1.47
2018-12-30T01:20:53.056Z,1.70
2018-12-30T01:22:59.999Z,2.10
2018-12-30T01:25:05.911Z,1.33
2018-12-30T01:27:11.918Z,2.20
2018-12-30T01:29:17.900Z,1.77
2018-12-30T01:31:23.457Z,2.23
2018-12-30T01:33:29.298Z,1.33
2018-12-30T01:35:54.036Z,1.87
2018-12-30T01:38:00.009Z,2.87
2018-12-30T01:40:08.061Z,3.10
2018-12-30T01:42:15.031Z,2.53
2018-12-30T01:44:42.952Z,2.83
2018-12-30T01:49:14.918Z,2.13
2018-12-30T01:53:51.015Z,2.10
2018-12-30T01:55:58.641Z,2.20
2018-12-30T01:58:12.851Z,2.23
2018-12-30T02:00:19.003Z,2.80
2018-12-30T02:02:27.332Z,1.83
2018-12-30T02:04:35.247Z,1.40
2018-12-30T02:06:40.862Z,2.97
2018-12-30T02:08:52.446Z,2.30
2018-12-30T02:11:01.581Z,2.03
2018-12-30T02:13:09.462Z,4.13
2018-12-30T02:15:15.167Z,2.60
2018-12-30T02:17:20.765Z,1.87
2018-12-30T02:19:27.011Z,2.20
2018-12-30T02:21:54.273Z,3.10
2018-12-30T02:23:59.934Z,1.57
2018-12-30T02:26:07.330Z,2.40
2018-12-30T02:28:15.597Z,3.10
2018-12-30T02:30:21.311Z,2.50
2018-12-30T02:32:27.480Z,1.63
2018-12-30T02:34:34.475Z,2.20
2018-12-30T02:36:44.396Z,1.83
2018-12-30T02:38:50.363Z,2.30
2018-12-30T02:40:58.546Z,2.13
2018-12-30T02:43:04.236Z,2.63
2018-12-30T02:45:14.462Z,1.60
2018-12-30T02:47:20.154Z,3.00
2018-12-30T02:49:28.095Z,2.90
2018-12-30T02:51:34.018Z,2.33
2018-12-30T02:53:40.885Z,2.00
2018-12-30T02:55:51.301Z,2.17
2018-12-30T02:57:57.777Z,2.20
2018-12-30T03:00:03.430Z,3.27
2018-12-30T03:02:11.468Z,1.93
2018-12-30T03:04:19.294Z,2.33
2018-12-30T03:06:30.892Z,1.80
2018-12-30T03:08:36.591Z,1.90
2018-12-30T03:10:45.054Z,2.00
2018-12-30T03:12:51.662Z,2.07
2018-12-30T03:14:57.639Z,1.80
2018-12-30T03:17:03.219Z,2.50
2018-12-30T03:19:08.842Z,2.27
2018-12-30T03:21:17.240Z,1.93
2018-12-30T03:23:23.233Z,2.13
2018-12-30T03:25:28.920Z,1.90
2018-12-30T03:27:34.972Z,1.47
2018-12-30T03:29:40.801Z,2.73
2018-12-30T03:31:46.677Z,1.63
2018-12-30T03:33:52.816Z,1.83
2018-12-30T03:35:58.528Z,1.83
2018-12-30T03:38:04.194Z,2.73
2018-12-30T03:40:10.601Z,2.17
2018-12-30T03:42:16.687Z,1.70
2018-12-30T03:44:23.215Z,1.80
2018-12-30T03:46:28.845Z,2.63
2018-12-30T03:48:34.788Z,1.90
2018-12-30T03:50:40.841Z,2.80
2018-12-30T03:52:50.468Z,1.77
2018-12-30T03:54:56.237Z,1.77
2018-12-30T03:57:02.037Z,1.27
2018-12-30T03:59:07.880Z,2.40
2018-12-30T04:01:16.474Z,1.67
2018-12-30T04:03:22.097Z,2.47
2018-12-30T04:05:28.254Z,2.27
2018-12-30T04:07:33.929Z,2.47
2018-12-30T04:09:39.856Z,2.43
2018-12-30T04:11:45.548Z,1.60
2018-12-30T04:13:54.175Z,2.60
2018-12-30T04:16:02.642Z,2.40
2018-12-30T04:18:08.501Z,2.50
2018-12-30T04:20:14.123Z,1.80
2018-12-30T04:22:19.748Z,2.80
2018-12-30T04:24:27.841Z,2.43
2018-12-30T04:26:36.312Z,1.83
2018-12-30T04:28:41.927Z,1.90
2018-12-30T04:30:47.801Z,3.00
2018-12-30T04:32:53.433Z,2.03
2018-12-30T04:34:59.069Z,2.50
2018-12-30T04:37:06.154Z,1.37
2018-12-30T04:39:11.736Z,3.00
2018-12-30T04:41:17.419Z,2.37
2018-12-30T04:43:25.263Z,1.90
2018-12-30T04:45:30.872Z,2.93
2018-12-30T04:47:36.534Z,1.50
2018-12-30T04:49:42.161Z,1.93
2018-12-30T04:51:47.761Z,2.40
2018-12-30T04:53:53.431Z,2.17
2018-12-30T04:55:59.093Z,1.53
2018-12-30T04:58:04.672Z,2.00
2018-12-30T05:00:11.121Z,2.10
2018-12-30T05:02:16.786Z,2.40
2018-12-30T05:04:22.445Z,1.90
2018-12-30T05:06:30.227Z,2.10
2018-12-30T05:08:35.796Z,1.90
2018-12-30T05:10:41.436Z,1.73
2018-12-30T05:12:49.305Z,2.37
2018-12-30T05:14:54.954Z,1.80
2018-12-30T05:17:00.562Z,2.10
2018-12-30T05:19:06.319Z,2.10
2018-12-30T05:21:12.070Z,1.70
2018-12-30T05:23:17.676Z,1.90
2018-12-30T05:25:23.719Z,2.27
2018-12-30T05:27:29.489Z,2.27
2018-12-30T05:29:36.119Z,1.70
2018-12-30T05:31:42.055Z,1.83
2018-12-30T05:33:48.697Z,2.10
2018-12-30T05:35:54.314Z,1.50
2018-12-30T05:37:59.914Z,1.73
2018-12-30T05:40:05.724Z,2.30
2018-12-30T05:42:12.170Z,1.37
2018-12-30T05:44:17.979Z,1.60
2018-12-30T05:46:24.931Z,2.03
2018-12-30T05:48:30.731Z,1.20
2018-12-30T05:50:39.425Z,2.63
2018-12-30T05:52:45.131Z,3.90
2018-12-30T05:54:50.821Z,2.00
2018-12-30T05:56:56.793Z,1.83
2018-12-30T05:59:02.463Z,2.10
2018-12-30T06:01:08.173Z,2.60
2018-12-30T06:03:13.835Z,4.47
2018-12-30T06:05:19.460Z,1.90
2018-12-30T06:07:26.844Z,2.20
2018-12-30T06:09:32.455Z,2.10
2018-12-30T06:11:38.146Z,1.60
2018-12-30T06:13:43.989Z,1.43
2018-12-30T06:15:49.625Z,1.33
2018-12-30T06:17:55.289Z,2.63
2018-12-30T06:20:01.167Z,1.70
2018-12-30T06:22:06.767Z,1.80
2018-12-30T06:24:15.150Z,2.07
2018-12-30T06:26:21.750Z,1.67
2018-12-30T06:28:27.480Z,2.00
2018-12-30T06:30:34.377Z,2.10
2018-12-30T06:32:42.987Z,2.63
2018-12-30T06:34:49.425Z,1.63
2018-12-30T06:36:55.039Z,1.60
2018-12-30T06:39:00.652Z,1.87
2018-12-30T06:41:09.002Z,1.80
2018-12-30T06:43:17.594Z,2.00
2018-12-30T06:45:25.124Z,1.33
2018-12-30T06:47:30.846Z,1.60
2018-12-30T06:49:36.465Z,1.87
2018-12-30T06:51:42.244Z,2.00
2018-12-30T06:53:49.494Z,2.93
2018-12-30T06:55:56.465Z,2.20
2018-12-30T06:58:02.737Z,2.17
2018-12-30T07:00:08.654Z,2.30
2018-12-30T07:02:14.461Z,3.50
2018-12-30T07:04:20.149Z,2.20
2018-12-30T07:06:25.792Z,1.70
2018-12-30T07:08:31.579Z,2.13
2018-12-30T07:10:39.584Z,2.17
2018-12-30T07:12:45.184Z,1.53
2018-12-30T07:14:50.792Z,2.70
2018-12-30T07:16:56.816Z,1.90
2018-12-30T07:19:03.739Z,1.30
2018-12-30T07:21:09.577Z,1.63
2018-12-30T07:23:15.205Z,2.00
2018-12-30T07:25:21.429Z,2.03
2018-12-30T07:27:28.639Z,2.00
2018-12-30T07:29:34.338Z,1.97
2018-12-30T07:31:40.747Z,2.10
2018-12-30T07:34:03.405Z,1.37
2018-12-30T07:35:56.825Z,1.43
2018-12-30T07:38:04.522Z,1.90
2018-12-30T07:40:10.244Z,2.10
2018-12-30T07:42:34.982Z,2.00
2018-12-30T07:44:40.682Z,2.00
2018-12-30T07:46:46.572Z,1.27
2018-12-30T07:48:55.485Z,1.37
2018-12-30T07:51:22.352Z,2.20
2018-12-30T07:53:28.038Z,1.80
2018-12-30T07:55:50.163Z,1.30
2018-12-30T07:57:57.557Z,1.90
2018-12-30T08:00:03.412Z,1.77
2018-12-30T08:02:11.019Z,1.87
2018-12-30T08:04:21.775Z,1.43
2018-12-30T08:07:05.340Z,2.60
2018-12-30T08:09:11.285Z,1.83
2018-12-30T08:11:36.042Z,1.63
2018-12-30T08:13:41.723Z,1.60
2018-12-30T08:15:48.990Z,1.70
2018-12-30T08:17:55.345Z,1.23
2018-12-30T08:20:01.086Z,1.40
2018-12-30T08:22:09.627Z,1.00
2018-12-30T08:24:37.664Z,1.30
2018-12-30T08:26:43.930Z,1.67
2018-12-30T08:28:49.602Z,1.43
2018-12-30T08:30:55.628Z,1.80
2018-12-30T08:33:02.799Z,1.60
2018-12-30T08:35:10.031Z,1.60
2018-12-30T08:37:16.314Z,1.70
2018-12-30T08:39:24.688Z,1.70
2018-12-30T08:44:20.998Z,1.70
2018-12-30T08:46:38.509Z,1.07
2018-12-30T08:48:47.401Z,2.77
2018-12-30T08:50:56.219Z,1.10
2018-12-30T08:53:29.182Z,1.80
2018-12-30T08:55:49.534Z,3.57
2018-12-30T08:57:55.252Z,3.03
2018-12-30T09:02:26.987Z,2.73
2018-12-30T09:04:32.696Z,1.60
2018-12-30T09:06:38.507Z,1.47
2018-12-30T09:08:44.482Z,1.30
2018-12-30T09:10:50.630Z,1.53
2018-12-30T09:13:18.087Z,1.97
2018-12-30T09:15:24.081Z,1.77
2018-12-30T09:17:30.021Z,2.27
2018-12-30T09:19:35.816Z,1.50
2018-12-30T09:21:42.026Z,1.80
2018-12-30T09:24:09.547Z,1.83
2018-12-30T09:26:15.259Z,1.23
2018-12-30T09:28:21.103Z,1.33
2018-12-30T09:30:26.926Z,1.40
2018-12-30T09:32:32.624Z,1.50
2018-12-30T09:34:38.608Z,1.47
2018-12-30T09:36:46.862Z,1.83
2018-12-30T09:38:52.497Z,1.37
2018-12-30T09:41:17.497Z,1.70
2018-12-30T09:43:23.407Z,1.03
2018-12-30T09:45:29.240Z,1.87
2018-12-30T09:47:34.969Z,1.90
2018-12-30T09:49:43.596Z,1.70
2018-12-30T09:51:53.285Z,1.87
2018-12-30T09:53:58.927Z,1.07
2018-12-30T09:56:04.706Z,2.10
2018-12-30T09:58:13.146Z,1.40
2018-12-30T10:00:18.828Z,1.53
2018-12-30T10:02:24.690Z,1.57
2018-12-30T10:04:31.611Z,2.00
2018-12-30T10:06:37.432Z,1.53
2018-12-30T10:09:04.071Z,1.97
2018-12-30T10:11:09.894Z,2.40
2018-12-30T10:13:28.707Z,2.03
2018-12-30T10:15:35.091Z,2.13
2018-12-30T10:17:42.899Z,1.60
2018-12-30T10:19:51.741Z,1.40
2018-12-30T10:22:02.379Z,1.87
2018-12-30T10:24:09.836Z,1.37
2018-12-30T10:26:15.660Z,1.67
2018-12-30T10:28:24.187Z,1.33
2018-12-30T10:30:30.519Z,1.53
2018-12-30T10:32:38.743Z,1.60
2018-12-30T10:34:44.657Z,1.60
2018-12-30T10:36:51.838Z,2.23
2018-12-30T10:38:57.587Z,1.60
2018-12-30T10:41:06.146Z,2.40
2018-12-30T10:43:12.141Z,1.20
2018-12-30T10:45:36.952Z,2.20
2018-12-30T10:47:47.079Z,1.50
2018-12-30T10:49:52.861Z,2.43
2018-12-30T10:52:01.066Z,1.47
2018-12-30T10:54:26.867Z,1.30
2018-12-30T10:56:32.532Z,1.57
2018-12-30T10:58:38.378Z,1.40
2018-12-30T11:00:44.008Z,1.77
2018-12-30T11:02:49.739Z,2.00
2018-12-30T11:07:23.223Z,1.47
2018-12-30T11:09:28.972Z,1.03
2018-12-30T11:11:34.715Z,1.60
2018-12-30T11:13:40.393Z,1.00
2018-12-30T11:15:48.193Z,1.30
2018-12-30T11:17:53.918Z,1.67
2018-12-30T11:19:59.635Z,1.53
2018-12-30T11:22:07.552Z,2.33
2018-12-30T11:24:14.642Z,1.67
2018-12-30T11:28:53.175Z,1.53
2018-12-30T11:31:11.528Z,1.63
2018-12-30T11:33:06.493Z,1.60
2018-12-30T11:35:12.535Z,1.67
2018-12-30T11:37:21.292Z,1.73
2018-12-30T11:39:27.013Z,2.07
2018-12-30T11:41:33.013Z,1.73
2018-12-30T11:43:39.040Z,1.97
2018-12-30T11:46:20.653Z,2.63
2018-12-30T11:48:13.791Z,1.70
2018-12-30T11:50:20.627Z,1.40
2018-12-30T11:52:27.255Z,1.77
2018-12-30T11:54:36.473Z,2.20
2018-12-30T11:57:02.727Z,1.30
2018-12-30T11:59:09.082Z,1.70
2018-12-30T12:01:17.688Z,1.90
2018-12-30T12:03:23.843Z,1.87
2018-12-30T12:05:30.029Z,0.97
2018-12-30T12:07:35.792Z,1.73
2018-12-30T12:10:01.845Z,1.83
2018-12-30T12:12:07.860Z,1.50
2018-12-30T12:14:32.584Z,2.47
2018-12-30T12:16:38.634Z,1.63
2018-12-30T12:18:44.372Z,1.63
2018-12-30T12:20:51.290Z,2.60
2018-12-30T12:22:56.985Z,2.20
2018-12-30T12:25:05.867Z,1.83
2018-12-30T12:27:11.736Z,2.77
2018-12-30T12:29:37.263Z,1.83
2018-12-30T12:31:44.035Z,2.10
2018-12-30T12:33:50.894Z,2.37
2018-12-30T12:36:00.824Z,2.10
2018-12-30T12:40:50.179Z,2.03
2018-12-30T12:42:43.814Z,2.10
2018-12-30T12:44:51.317Z,1.20
2018-12-30T12:47:18.707Z,1.90
2018-12-30T12:49:24.736Z,2.60
2018-12-30T12:51:32.919Z,1.43
2018-12-30T12:53:40.416Z,2.30
2018-12-30T12:56:09.770Z,1.60
2018-12-30T12:58:16.403Z,2.03
2018-12-30T13:00:40.846Z,2.10
2018-12-30T13:02:46.696Z,2.40
2018-12-30T13:07:48.352Z,1.93
2018-12-30T13:10:15.330Z,1.93
2018-12-30T13:12:25.782Z,2.07
2018-12-30T13:14:46.183Z,2.20
2018-12-30T13:17:04.245Z,2.77
2018-12-30T13:19:12.412Z,2.27
2018-12-30T13:21:19.178Z,2.63
2018-12-30T13:25:59.391Z,2.13
2018-12-30T13:28:06.768Z,3.43
2018-12-30T13:30:31.640Z,3.37
2018-12-30T13:32:49.280Z,3.13
2018-12-30T13:34:58.881Z,2.63
2018-12-30T13:37:04.872Z,3.60
2018-12-30T13:39:15.165Z,3.10
2018-12-30T13:41:20.903Z,3.20
2018-12-30T13:43:28.119Z,2.90
2018-12-30T13:45:33.904Z,2.83
2018-12-30T13:47:44.520Z,3.20
2018-12-30T13:49:52.012Z,2.93
2018-12-30T13:51:57.720Z,2.80
2018-12-30T13:54:05.363Z,3.63
2018-12-30T13:56:16.498Z,3.13
2018-12-30T13:58:41.057Z,3.40
2018-12-30T14:01:05.843Z,3.50
2018-12-30T14:03:11.741Z,2.90
2018-12-30T14:05:17.801Z,5.10
2018-12-30T14:07:27.507Z,4.20
2018-12-30T14:09:35.349Z,3.30
2018-12-30T14:11:42.940Z,2.87
2018-12-30T14:13:51.106Z,3.10
2018-12-30T14:16:16.242Z,2.67
2018-12-30T14:18:22.342Z,3.77
2018-12-30T14:20:28.838Z,4.33
2018-12-30T14:22:54.293Z,4.17
2018-12-30T14:25:00.395Z,3.70
2018-12-30T14:27:28.206Z,4.90
2018-12-30T14:29:34.374Z,2.97
2018-12-30T14:31:40.458Z,2.47
2018-12-30T14:33:50.996Z,3.40
2018-12-30T14:35:56.981Z,3.50
2018-12-30T14:38:02.834Z,3.50
2018-12-30T14:40:11.686Z,3.97
2018-12-30T14:42:36.910Z,2.80
2018-12-30T14:44:42.941Z,4.37
2018-12-30T14:46:51.640Z,3.30
2018-12-30T14:49:00.396Z,4.07
2018-12-30T14:51:18.231Z,3.53
2018-12-30T14:53:27.232Z,3.10
2018-12-30T14:55:45.007Z,3.30
2018-12-30T14:58:11.382Z,4.23
2018-12-30T15:00:17.399Z,4.60
2018-12-30T15:02:24.834Z,4.60
2018-12-30T15:04:50.409Z,3.90
2018-12-30T15:06:56.399Z,4.40
2018-12-30T15:09:25.000Z,3.80
2018-12-30T15:11:30.785Z,3.90
2018-12-30T15:13:47.427Z,4.40
2018-12-30T15:15:53.718Z,3.50
2018-12-30T15:18:01.388Z,4.00
2018-12-30T15:20:30.245Z,3.67
2018-12-30T15:22:37.446Z,4.30
2018-12-30T15:24:43.143Z,3.70
2018-12-30T15:26:49.366Z,4.13
2018-12-30T15:28:59.947Z,3.33
2018-12-30T15:31:05.724Z,4.80
2018-12-30T15:33:14.242Z,3.83
2018-12-30T15:35:20.502Z,4.43
2018-12-30T15:37:46.952Z,3.97
2018-12-30T15:39:56.046Z,4.53
2018-12-30T15:42:01.834Z,5.30
2018-12-30T15:44:07.603Z,4.43
2018-12-30T15:46:13.380Z,4.00
2018-12-30T15:48:19.018Z,4.60
2018-12-30T15:50:25.042Z,4.80
2018-12-30T15:52:34.703Z,4.00
2018-12-30T15:54:40.713Z,5.20
2018-12-30T15:56:57.740Z,4.60
2018-12-30T15:59:03.547Z,5.10
2018-12-30T16:01:09.682Z,4.67
2018-12-30T16:03:40.058Z,4.50
2018-12-30T16:05:48.110Z,3.73
2018-12-30T16:07:53.956Z,4.67
2018-12-30T16:10:00.794Z,5.33
2018-12-30T16:12:08.178Z,5.53
2018-12-30T16:14:33.442Z,5.27
2018-12-30T16:16:39.603Z,6.03
2018-12-30T16:19:00.879Z,5.00
2018-12-30T16:20:54.343Z,4.83
2018-12-30T16:23:20.787Z,5.60
2018-12-30T16:25:27.467Z,5.90
2018-12-30T16:27:54.415Z,5.17
2018-12-30T16:30:01.078Z,5.53
2018-12-30T16:32:07.004Z,5.93
2018-12-30T16:34:31.867Z,6.87
2018-12-30T16:36:37.481Z,5.73
2018-12-30T16:39:03.043Z,7.17
2018-12-30T16:41:09.015Z,6.57
2018-12-30T16:43:15.390Z,6.20
2018-12-30T16:45:21.404Z,6.23
2018-12-30T16:47:27.501Z,6.20
2018-12-30T16:49:33.247Z,7.10
2018-12-30T16:52:00.318Z,6.33
2018-12-30T16:54:06.157Z,8.00
2018-12-30T16:56:15.262Z,6.57
2018-12-30T16:58:36.144Z,7.17
2018-12-30T17:00:42.108Z,7.43
2018-12-30T17:05:15.927Z,7.80
2018-12-30T17:07:21.753Z,8.77
2018-12-30T17:09:29.946Z,8.00
2018-12-30T17:11:36.032Z,8.67
2018-12-30T17:13:42.184Z,8.83
2018-12-30T17:15:47.868Z,8.43
2018-12-30T17:17:53.708Z,9.73
2018-12-30T17:20:01.207Z,8.50
2018-12-30T17:22:28.433Z,9.30
2018-12-30T17:24:34.110Z,10.03
2018-12-30T17:27:00.176Z,9.47
2018-12-30T17:29:17.288Z,11.07
2018-12-30T17:31:23.158Z,10.00
2018-12-30T17:33:48.105Z,11.50
2018-12-30T17:35:56.100Z,11.57
2018-12-30T17:38:03.206Z,10.80
2018-12-30T17:40:11.751Z,11.77
2018-12-30T17:42:20.494Z,12.07
2018-12-30T17:44:28.934Z,12.00
2018-12-30T17:46:38.273Z,11.00
2018-12-30T17:48:43.989Z,11.90
2018-12-30T17:50:50.520Z,11.10
2018-12-30T17:52:56.187Z,13.50
2018-12-30T17:55:21.192Z,13.17
2018-12-30T17:57:29.036Z,12.10
2018-12-30T17:59:48.480Z,12.53
2018-12-30T18:01:54.526Z,12.67
2018-12-30T18:04:03.299Z,13.60
2018-12-30T18:06:09.004Z,13.37
2018-12-30T18:08:42.979Z,13.73
2018-12-30T18:10:51.799Z,11.00
2018-12-30T18:13:18.512Z,10.87
2018-12-30T18:15:24.751Z,11.90
2018-12-30T18:17:30.828Z,13.47
2018-12-30T18:19:37.605Z,11.53
2018-12-30T18:21:43.559Z,11.70
2018-12-30T18:23:49.345Z,12.13
2018-12-30T18:25:59.399Z,13.63
2018-12-30T18:28:08.593Z,12.90
2018-12-30T18:30:14.305Z,10.33
2018-12-30T18:32:22.548Z,11.67
2018-12-30T18:34:28.262Z,7.73
2018-12-30T18:36:33.970Z,12.57
2018-12-30T18:38:39.632Z,13.10
2018-12-30T18:40:48.005Z,13.47
2018-12-30T18:42:53.714Z,11.30
2018-12-30T18:44:59.519Z,13.23
2018-12-30T18:47:08.322Z,12.67
2018-12-30T18:49:33.453Z,10.60
2018-12-30T18:51:51.675Z,10.50
2018-12-30T18:54:20.898Z,14.43
2018-12-30T18:56:28.315Z,12.10
2018-12-30T18:58:35.795Z,14.07
2018-12-30T19:00:55.674Z,13.63
2018-12-30T19:03:20.340Z,9.67
2018-12-30T19:05:27.447Z,12.53
2018-12-30T19:07:36.309Z,11.90
2018-12-30T19:09:43.220Z,13.20
2018-12-30T19:11:49.343Z,11.20
2018-12-30T19:13:55.197Z,11.90
2018-12-30T19:16:01.083Z,11.70
2018-12-30T19:18:06.858Z,12.07
2018-12-30T19:20:12.565Z,11.83
2018-12-30T19:22:18.213Z,12.17
2018-12-30T19:24:45.432Z,14.10
2018-12-30T19:27:09.953Z,12.40
2018-12-30T19:29:35.043Z,12.43
2018-12-30T19:31:43.179Z,14.63
2018-12-30T19:34:08.447Z,15.07
2018-12-30T19:36:14.333Z,11.80
2018-12-30T19:38:19.980Z,11.90
2018-12-30T19:40:26.103Z,12.17
2018-12-30T19:42:31.955Z,14.00
2018-12-30T19:44:37.753Z,11.60
2018-12-30T19:46:43.467Z,11.67
2018-12-30T19:49:08.318Z,12.83
2018-12-30T19:51:14.014Z,12.37
2018-12-30T19:53:31.174Z,12.20
2018-12-30T19:55:55.878Z,12.83
2018-12-30T19:58:02.696Z,13.17
2018-12-30T20:00:11.381Z,15.50
2018-12-30T20:02:18.344Z,15.73
2018-12-30T20:04:24.116Z,14.67
2018-12-30T20:06:29.937Z,12.57
2018-12-30T20:08:36.544Z,14.43
2018-12-30T20:10:42.304Z,14.10
2018-12-30T20:12:48.395Z,15.43
2018-12-30T20:14:55.778Z,14.57
2018-12-30T20:17:01.988Z,17.03
2018-12-30T20:19:07.967Z,11.37
2018-12-30T20:21:14.430Z,16.37
2018-12-30T20:23:20.234Z,14.30
2018-12-30T20:25:26.283Z,15.23
2018-12-30T20:27:43.923Z,16.63
2018-12-30T20:29:49.951Z,18.17
2018-12-30T20:31:57.568Z,14.70
2018-12-30T20:34:05.248Z,15.67
2018-12-30T20:36:10.873Z,14.73
2018-12-30T20:38:17.353Z,15.17
2018-12-30T20:40:23.929Z,16.60
2018-12-30T20:42:30.711Z,16.80
2018-12-30T20:44:39.355Z,16.07
2018-12-30T20:46:47.393Z,15.70
2018-12-30T20:49:13.241Z,13.27
2018-12-30T20:51:26.513Z,16.97
2018-12-30T20:53:33.096Z,14.70
2018-12-30T20:55:44.403Z,16.77
2018-12-30T20:57:51.989Z,15.87
2018-12-30T20:59:58.587Z,17.90
2018-12-30T21:02:06.171Z,17.60
2018-12-30T21:07:02.587Z,16.10
2018-12-30T21:09:20.361Z,14.47
2018-12-30T21:11:26.374Z,16.40
2018-12-30T21:13:33.803Z,16.77
2018-12-30T21:18:07.013Z,16.90
2018-12-30T21:20:15.349Z,15.77
2018-12-30T21:25:13.647Z,14.93
2018-12-30T21:27:53.917Z,13.83
2018-12-30T21:30:11.860Z,16.03
2018-12-30T21:32:20.323Z,14.30
2018-12-30T21:34:27.184Z,15.33
2018-12-30T21:36:35.021Z,17.90
2018-12-30T21:38:41.187Z,16.17
2018-12-30T21:40:47.399Z,15.57
2018-12-30T21:42:56.212Z,15.80
2018-12-30T21:45:02.823Z,18.90
2018-12-30T21:47:09.189Z,15.73
2018-12-30T21:49:15.361Z,17.13
2018-12-30T21:51:40.158Z,16.57
2018-12-30T21:53:58.301Z,16.37
2018-12-30T21:56:06.443Z,14.30
2018-12-30T21:58:12.493Z,16.83
2018-12-30T22:00:18.356Z,17.23
2018-12-30T22:02:48.715Z,15.90
2018-12-30T22:05:06.793Z,14.60
2018-12-30T22:07:12.802Z,15.17
2018-12-30T22:09:19.777Z,14.17
2018-12-30T22:11:26.316Z,16.50
2018-12-30T22:13:32.295Z,15.30
2018-12-30T22:15:38.994Z,15.13
2018-12-30T22:17:44.802Z,16.40
2018-12-30T22:19:52.245Z,17.10
2018-12-30T22:22:19.328Z,18.10
2018-12-30T22:24:25.463Z,16.07
2018-12-30T22:26:31.703Z,18.00
2018-12-30T22:28:58.893Z,15.07
2018-12-30T22:31:04.670Z,17.43
2018-12-30T22:33:30.979Z,15.17
2018-12-30T22:35:36.896Z,15.40
2018-12-30T22:37:43.773Z,17.00
2018-12-30T22:39:59.014Z,17.30
2018-12-30T22:42:05.652Z,16.13
2018-12-30T22:44:11.839Z,17.03
2018-12-30T22:46:19.279Z,17.27
2018-12-30T22:48:27.716Z,15.53
2018-12-30T22:50:33.877Z,16.00
2018-12-30T22:52:45.112Z,15.57
2018-12-30T22:54:51.149Z,16.60
2018-12-30T22:56:57.283Z,16.67
2018-12-30T22:59:04.099Z,15.50
2018-12-30T23:01:33.951Z,14.70
2018-12-30T23:03:44.375Z,15.27
2018-12-30T23:08:23.716Z,14.30
2018-12-30T23:10:33.720Z,17.20
2018-12-30T23:12:41.384Z,14.90
2018-12-30T23:14:47.129Z,13.80
2018-12-30T23:16:52.767Z,13.93
2018-12-30T23:18:58.516Z,12.97
2018-12-30T23:21:23.712Z,14.93
2018-12-30T23:23:43.263Z,13.83
2018-12-30T23:25:49.506Z,15.27
2018-12-30T23:28:15.115Z,13.10
2018-12-30T23:30:21.603Z,13.93
2018-12-30T23:32:27.750Z,13.87
2018-12-30T23:34:33.651Z,12.97
2018-12-30T23:36:40.079Z,12.63
2018-12-30T23:39:06.209Z,14.00
2018-12-30T23:41:11.923Z,12.90
2018-12-30T23:43:18.713Z,12.10
2018-12-30T23:48:03.587Z,12.20
2018-12-30T23:50:11.502Z,15.37
2018-12-30T23:52:20.163Z,14.83
2018-12-30T23:54:27.801Z,13.77
2018-12-30T23:56:36.775Z,14.70
2018-12-30T23:58:45.577Z,16.00
